Estación de La capilla
Ultimos registro cada 15 minutos 77
| N° | Estación | Fecha / Hora | Temperatura | Humedad | Lluvia | Velocidad | Dirección | Radiación | Presion |
| 77 | La capilla | 05-09-2026 19:00 | 11,3 | 41 | 0 | 0 | 334 | 0 | 1094,3 |
| 76 | La capilla | 05-09-2026 18:45 | 11,7 | 41 | 0 | 0 | 360 | 0 | 1094,3 |
| 75 | La capilla | 05-09-2026 18:30 | 12,3 | 39 | 0 | 0 | 360 | 0 | 1094,2 |
| 74 | La capilla | 05-09-2026 18:15 | 13 | 39 | 0 | 0,4 | 342 | 7 | 1094,1 |
| 73 | La capilla | 05-09-2026 18:00 | 13,5 | 39 | 0 | 0 | 343 | 12 | 1094,1 |
| 72 | La capilla | 05-09-2026 17:45 | 13,9 | 37 | 0 | 0,4 | 346 | 16 | 1094 |
| 71 | La capilla | 05-09-2026 17:30 | 14,3 | 37 | 0 | 1,8 | 355 | 16 | 1093,9 |
| 70 | La capilla | 05-09-2026 17:15 | 14,7 | 36 | 0 | 0 | 338 | 19 | 1093,9 |
| 69 | La capilla | 05-09-2026 17:00 | 14,9 | 35 | 0 | 1,8 | 342 | 23 | 1093,8 |
| 68 | La capilla | 05-09-2026 16:45 | 15,3 | 35 | 0 | 0,4 | 360 | 272 | 1093,8 |
| 67 | La capilla | 05-09-2026 16:30 | 15,4 | 35 | 0 | 0 | 323 | 32 | 1093,8 |
| 66 | La capilla | 05-09-2026 16:15 | 15,6 | 36 | 0 | 4 | 298 | 311 | 1093,8 |
| 65 | La capilla | 05-09-2026 16:00 | 15,6 | 36 | 0 | 0 | 336 | 417 | 1093,9 |
| 64 | La capilla | 05-09-2026 15:45 | 15,6 | 36 | 0 | 1,3 | 360 | 457 | 1094 |
| 63 | La capilla | 05-09-2026 15:30 | 15,6 | 33 | 0 | 1,8 | 360 | 497 | 1094,1 |
| 62 | La capilla | 05-09-2026 15:15 | 15,3 | 34 | 0 | 2,7 | 345 | 374 | 1094,2 |
| 61 | La capilla | 05-09-2026 15:00 | 15,3 | 36 | 0 | 3,1 | 304 | 373 | 1094,3 |
| 60 | La capilla | 05-09-2026 14:45 | 15,2 | 35 | 0 | 4,9 | 360 | 605 | 1094,3 |
| 59 | La capilla | 05-09-2026 14:30 | 15,2 | 35 | 0 | 0,4 | 306 | 631 | 1094,4 |
| 58 | La capilla | 05-09-2026 14:15 | 15,1 | 36 | 0 | 2,2 | 337 | 659 | 1094,8 |
| 57 | La capilla | 05-09-2026 14:00 | 15 | 37 | 0 | 3,6 | 342 | 489 | 1095 |
| 56 | La capilla | 05-09-2026 13:45 | 14,9 | 36 | 0 | 0,4 | 351 | 698 | 1095,5 |
| 55 | La capilla | 05-09-2026 13:30 | 14,9 | 36 | 0 | 5,4 | 306 | 714 | 1095,7 |
| 54 | La capilla | 05-09-2026 13:15 | 14,6 | 37 | 0 | 3,1 | 288 | 721 | 1095,9 |
| 53 | La capilla | 05-09-2026 13:00 | 14,5 | 36 | 0 | 3,6 | 322 | 729 | 1095,9 |
| 52 | La capilla | 05-09-2026 12:45 | 14,5 | 39 | 0 | 3,6 | 338 | 731 | 1096 |
| 51 | La capilla | 05-09-2026 12:30 | 14,3 | 39 | 0 | 4 | 355 | 731 | 1096,5 |
| 50 | La capilla | 05-09-2026 12:15 | 13,9 | 45 | 0 | 4 | 332 | 722 | 1096,7 |
| 49 | La capilla | 05-09-2026 12:00 | 13,5 | 51 | 0 | 5,8 | 351 | 714 | 1097 |
| 48 | La capilla | 05-09-2026 11:45 | 13,2 | 52 | 0 | 3,1 | 9 | 703 | 1097,3 |
| 47 | La capilla | 05-09-2026 11:30 | 12,6 | 55 | 0 | 5,4 | 347 | 686 | 1097,3 |
| 46 | La capilla | 05-09-2026 11:15 | 12,4 | 53 | 0 | 4 | 5 | 664 | 1097,4 |
| 45 | La capilla | 05-09-2026 11:00 | 12,1 | 53 | 0 | 4 | 346 | 642 | 1097,6 |
| 44 | La capilla | 05-09-2026 10:45 | 11,8 | 55 | 0 | 4 | 355 | 615 | 1098 |
| 43 | La capilla | 05-09-2026 10:30 | 11,4 | 56 | 0 | 1,8 | 345 | 585 | 1098 |
| 42 | La capilla | 05-09-2026 10:15 | 11,1 | 56 | 0 | 0,9 | 281 | 552 | 1098,3 |
| 41 | La capilla | 05-09-2026 10:00 | 10,8 | 57 | 0 | 1,8 | 340 | 517 | 1098 |
| 40 | La capilla | 05-09-2026 09:45 | 10,4 | 56 | 0 | 2,7 | 360 | 111 | 1098,3 |
| 39 | La capilla | 05-09-2026 09:30 | 9,9 | 59 | 0 | 2,2 | 360 | 33 | 1098,3 |
| 38 | La capilla | 05-09-2026 09:15 | 9,6 | 62 | 0 | 2,2 | 16 | 390 | 1098,4 |
| 37 | La capilla | 05-09-2026 09:00 | 9,2 | 64 | 0 | 4,5 | 360 | 343 | 1098,4 |
| 36 | La capilla | 05-09-2026 08:45 | 8,8 | 66 | 0 | 5,4 | 360 | 258 | 1098,3 |
| 35 | La capilla | 05-09-2026 08:30 | 8,3 | 67 | 0 | 5,4 | 338 | 246 | 1098,4 |
| 34 | La capilla | 05-09-2026 08:15 | 7,8 | 70 | 0 | 0 | 327 | 69 | 1098,3 |
| 33 | La capilla | 05-09-2026 08:00 | 7,1 | 73 | 0 | 0,9 | 360 | 105 | 1098,3 |
| 32 | La capilla | 05-09-2026 07:45 | 6,7 | 75 | 0 | 0 | 360 | 16 | 1098,1 |
| 31 | La capilla | 05-09-2026 07:30 | 6,4 | 76 | 0 | 0,9 | 360 | 12 | 1098,1 |
| 30 | La capilla | 05-09-2026 07:15 | 6,3 | 77 | 0 | 0,4 | 360 | 9 | 1098 |
| 29 | La capilla | 05-09-2026 07:00 | 6,3 | 78 | 0 | 2,2 | 349 | 0 | 1098 |
| 28 | La capilla | 05-09-2026 06:45 | 6,4 | 79 | 0 | 2,2 | 342 | 0 | 1098,2 |
| 27 | La capilla | 05-09-2026 06:30 | 6,4 | 79 | 0 | 0 | 351 | 0 | 1098,2 |
| 26 | La capilla | 05-09-2026 06:15 | 6,5 | 80 | 0 | 0 | 348 | 0 | 1098,1 |
| 25 | La capilla | 05-09-2026 06:00 | 6,5 | 80 | 0 | 1,3 | 355 | 0 | 1098 |
| 24 | La capilla | 05-09-2026 05:45 | 6,6 | 80 | 0 | 2,2 | 338 | 0 | 1098,1 |
| 23 | La capilla | 05-09-2026 05:30 | 6,6 | 81 | 0 | 0 | 350 | 0 | 1098 |
| 22 | La capilla | 05-09-2026 05:15 | 6,8 | 80 | 0 | 3,6 | 360 | 0 | 1098,1 |
| 21 | La capilla | 05-09-2026 05:00 | 7,1 | 79 | 0 | 2,2 | 360 | 0 | 1098 |
| 20 | La capilla | 05-09-2026 04:45 | 7,1 | 79 | 0 | 4 | 360 | 0 | 1098,1 |
| 19 | La capilla | 05-09-2026 04:30 | 7,1 | 80 | 0 | 1,3 | 360 | 0 | 1098,1 |
| 18 | La capilla | 05-09-2026 04:15 | 7,2 | 80 | 0 | 2,2 | 360 | 0 | 1098,2 |
| 17 | La capilla | 05-09-2026 04:00 | 7,2 | 81 | 0 | 4,9 | 360 | 0 | 1098,3 |
| 16 | La capilla | 05-09-2026 03:45 | 7,3 | 81 | 0 | 1,8 | 360 | 0 | 1098,4 |
| 15 | La capilla | 05-09-2026 03:30 | 7,3 | 82 | 0 | 5,8 | 360 | 0 | 1098,4 |
| 14 | La capilla | 05-09-2026 03:15 | 7,3 | 82 | 0 | 3,6 | 360 | 0 | 1098,7 |
| 13 | La capilla | 05-09-2026 03:00 | 7,4 | 82 | 0 | 4 | 360 | 0 | 1098,9 |
| 12 | La capilla | 05-09-2026 02:45 | 7,4 | 82 | 0 | 4,5 | 360 | 0 | 1099 |
| 11 | La capilla | 05-09-2026 02:30 | 7,4 | 82 | 0 | 4 | 360 | 0 | 1099,3 |
| 10 | La capilla | 05-09-2026 02:15 | 7,3 | 83 | 0 | 5,4 | 360 | 0 | 1099,2 |
| 9 | La capilla | 05-09-2026 02:00 | 7,1 | 83 | 0 | 4,5 | 360 | 0 | 1099,5 |
| 8 | La capilla | 05-09-2026 01:45 | 7,1 | 84 | 0 | 2,2 | 360 | 0 | 1099,8 |
| 7 | La capilla | 05-09-2026 01:30 | 7,1 | 84 | 0 | 0,9 | 360 | 0 | 1100,1 |
| 6 | La capilla | 05-09-2026 01:15 | 7,1 | 84 | 0 | 0 | 360 | 0 | 1100,3 |
| 5 | La capilla | 05-09-2026 01:00 | 7,1 | 83 | 0 | 2,7 | 360 | 0 | 1100,4 |
| 4 | La capilla | 05-09-2026 00:45 | 7,2 | 83 | 0 | 0,9 | 360 | 0 | 1100,5 |
| 3 | La capilla | 05-09-2026 00:30 | 7,2 | 83 | 0 | 0,4 | 360 | 0 | 1100,6 |
| 2 | La capilla | 05-09-2026 00:15 | 7,3 | 82 | 0 | 4,9 | 360 | 0 | 1100,6 |
| 1 | La capilla | 05-09-2026 00:00 | 7,3 | 82 | 0 | 3,6 | 360 | 0 | 1100,6 |